Time;durP1;ratioP1;P1;durP2;ratioP2;P2;SDS_P1;SDS_P2;PMS_P1;PMS_P2;Temp;Humidity;BMP_temperature;BMP_pressure;BME280_temperature;BME280_humidity;BME280_pressure;Samples;Min_cycle;Max_cycle;Signal;HPM_P1;HPM_P2
2023/01/11 00:00:47;;;;;;;11.15;3.22;;;4.80;1.00;;;;;;6223762;23;20278;-87
2023/01/11 00:03:16;;;;;;;5.32;3.63;;;4.80;1.00;;;;;;6224399;23;20214;-88
2023/01/11 00:05:43;;;;;;;6.60;3.40;;;4.80;1.00;;;;;;6224582;23;20175;-87
2023/01/11 00:08:11;;;;;;;11.90;3.75;;;4.90;1.00;;;;;;6224164;23;20250;-88
2023/01/11 00:10:38;;;;;;;5.00;3.25;;;4.90;1.00;;;;;;6225248;23;20229;-88
2023/01/11 00:13:08;;;;;;;7.25;3.58;;;4.90;1.00;;;;;;6223831;23;20487;-88
2023/01/11 00:15:37;;;;;;;5.68;2.63;;;4.90;1.00;;;;;;6224209;23;20235;-88
2023/01/11 00:18:04;;;;;;;5.93;2.65;;;4.90;1.00;;;;;;6224076;23;20302;-87
2023/01/11 00:20:31;;;;;;;6.60;3.10;;;4.90;1.00;;;;;;6234073;23;20215;-88
2023/01/11 00:22:58;;;;;;;11.23;3.20;;;4.90;1.00;;;;;;6240210;23;20206;-88
2023/01/11 00:25:25;;;;;;;4.50;3.22;;;4.90;1.00;;;;;;6241830;23;20163;-88
2023/01/11 00:27:52;;;;;;;6.93;3.10;;;5.00;1.00;;;;;;6241660;23;20266;-88
2023/01/11 00:30:19;;;;;;;6.72;3.45;;;4.90;1.00;;;;;;6241500;23;20188;-88
2023/01/11 00:32:47;;;;;;;12.85;3.22;;;5.00;1.00;;;;;;6239698;23;20191;-88
2023/01/11 00:35:14;;;;;;;9.63;3.38;;;5.00;1.00;;;;;;6241879;23;20159;-87
2023/01/11 00:37:41;;;;;;;8.68;3.38;;;5.00;1.00;;;;;;6239031;23;20190;-87
2023/01/11 00:40:09;;;;;;;7.43;3.00;;;5.20;1.00;;;;;;6240803;23;20223;-87
2023/01/11 00:48:08;;;;;;;5.25;3.25;;;4.90;1.00;;;;;;6236751;23;20211;-88
2023/01/11 00:50:37;;;;;;;8.15;3.83;;;4.90;1.00;;;;;;6244932;22;20209;-87
2023/01/11 00:53:05;;;;;;;7.72;2.95;;;5.10;1.00;;;;;;6245186;22;20177;-86
2023/01/11 00:55:32;;;;;;;7.03;3.95;;;4.90;1.00;;;;;;6239647;22;20172;-88
2023/01/11 00:58:02;;;;;;;5.82;3.00;;;4.80;1.00;;;;;;6235640;23;20235;-88
2023/01/11 01:00:30;;;;;;;4.70;3.25;;;4.80;1.00;;;;;;6235305;22;20195;-88
2023/01/11 01:02:58;;;;;;;5.10;3.03;;;4.80;1.00;;;;;;6223193;23;20179;-88
2023/01/11 01:05:26;;;;;;;11.18;3.90;;;4.80;1.00;;;;;;6221484;23;20225;-88
2023/01/11 01:07:53;;;;;;;9.57;3.35;;;4.80;1.00;;;;;;6221882;23;20202;-88
2023/01/11 01:10:21;;;;;;;5.90;3.20;;;4.80;1.00;;;;;;6221838;23;20238;-88
2023/01/11 01:15:33;;;;;;;3.65;3.35;;;4.80;1.00;;;;;;6231335;23;20197;-87
2023/01/11 01:18:00;;;;;;;5.13;3.38;;;4.60;1.00;;;;;;6237529;23;20179;-86
2023/01/11 01:20:28;;;;;;;20.67;4.00;;;4.70;1.00;;;;;;6239727;23;20688;-87
2023/01/11 01:22:55;;;;;;;7.10;3.03;;;4.70;1.00;;;;;;6236657;23;20176;-87
2023/01/11 01:25:22;;;;;;;4.88;3.20;;;4.70;1.00;;;;;;6232114;23;20179;-87
2023/01/11 01:27:49;;;;;;;5.90;2.97;;;4.70;1.00;;;;;;6222495;23;20175;-88
2023/01/11 01:30:16;;;;;;;5.25;2.95;;;4.50;1.00;;;;;;6225309;23;20226;-87
2023/01/11 01:32:43;;;;;;;5.60;2.67;;;4.80;1.00;;;;;;6225265;23;20223;-88
2023/01/11 01:35:10;;;;;;;8.52;3.70;;;4.80;1.00;;;;;;6226949;23;20202;-88
2023/01/11 01:37:38;;;;;;;5.55;3.17;;;4.60;1.00;;;;;;6222711;23;20177;-86
2023/01/11 01:40:06;;;;;;;9.00;4.47;;;4.80;1.00;;;;;;6221944;23;20274;-88
2023/01/11 01:42:33;;;;;;;6.43;3.53;;;4.80;1.00;;;;;;6222152;23;20274;-87
2023/01/11 01:45:05;;;;;;;10.80;2.95;;;4.70;1.00;;;;;;6223164;23;20179;-87
2023/01/11 01:47:38;;;;;;;6.00;2.80;;;4.70;1.00;;;;;;6223894;23;20223;-88
2023/01/11 01:50:10;;;;;;;8.18;3.67;;;4.80;1.00;;;;;;6223054;23;20238;-87
2023/01/11 01:52:38;;;;;;;5.88;3.10;;;4.80;1.00;;;;;;6223409;23;20198;-88
2023/01/11 01:55:10;;;;;;;7.38;2.28;;;4.80;1.00;;;;;;6223953;23;20179;-88
2023/01/11 01:57:41;;;;;;;6.10;3.50;;;4.80;1.00;;;;;;6222757;23;20247;-87
2023/01/11 02:00:09;;;;;;;12.32;3.55;;;4.90;1.00;;;;;;6223256;23;20714;-88
2023/01/11 02:02:37;;;;;;;3.35;2.50;;;4.90;99.90;;;;;;6223691;23;20195;-87
2023/01/11 02:05:07;;;;;;;5.03;2.78;;;4.90;99.90;;;;;;6224439;23;20544;-87
2023/01/11 02:07:36;;;;;;;8.75;2.97;;;4.90;99.90;;;;;;6224839;23;20253;-87
2023/01/11 02:10:09;;;;;;;5.38;3.25;;;4.90;1.00;;;;;;6224333;23;20203;-87
2023/01/11 02:12:40;;;;;;;7.05;2.35;;;5.00;99.90;;;;;;6223963;23;20469;-88
2023/01/11 02:15:10;;;;;;;5.30;2.92;;;5.10;99.90;;;;;;6225083;23;20171;-87
2023/01/11 02:17:37;;;;;;;8.75;2.30;;;;;;;;;;6224644;23;20207;-87
2023/01/11 02:20:16;;;;;;;7.82;2.78;;;5.00;99.90;;;;;;6222869;23;20270;-87
2023/01/11 02:23:20;;;;;;;6.78;2.35;;;5.00;99.90;;;;;;6231551;23;20210;-87
2023/01/11 02:26:31;;;;;;;6.25;2.67;;;5.10;99.90;;;;;;6236426;23;20206;-87
2023/01/11 02:29:08;;;;;;;2.83;2.63;;;5.10;99.90;;;;;;6242988;22;20191;-87
2023/01/11 02:31:44;;;;;;;5.60;2.85;;;5.00;99.90;;;;;;6243808;22;20178;-87
2023/01/11 02:34:26;;;;;;;3.55;2.47;;;5.20;99.90;;;;;;6243688;22;20160;-86
2023/01/11 02:37:07;;;;;;;2.47;2.25;;;5.20;99.90;;;;;;6243642;22;20160;-87
2023/01/11 02:39:45;;;;;;;4.53;2.92;;;5.20;99.90;;;;;;6243970;22;20195;-87
2023/01/11 02:45:11;;;;;;;6.60;2.85;;;5.30;99.90;;;;;;6237506;23;20213;-87
2023/01/11 02:47:44;;;;;;;13.18;2.60;;;5.60;99.90;;;;;;6229078;23;20190;-88
2023/01/11 02:50:18;;;;;;;2.35;1.75;;;5.30;38.50;;;;;;6223515;23;20196;-88
2023/01/11 02:52:53;;;;;;;2.10;1.90;;;5.30;94.80;;;;;;6226804;23;20159;-88
2023/01/11 02:55:26;;;;;;;8.02;2.30;;;5.30;52.50;;;;;;6224724;23;20223;-88
2023/01/11 02:57:56;;;;;;;4.13;1.90;;;5.40;10.70;;;;;;6228293;23;20187;-87
2023/01/11 03:00:25;;;;;;;2.80;2.25;;;5.40;24.70;;;;;;6230108;23;20207;-88
2023/01/11 03:03:15;;;;;;;3.85;2.38;;;5.40;1.00;;;;;;6231196;23;20572;-88
2023/01/11 03:05:55;;;;;;;4.40;2.10;;;5.40;1.00;;;;;;6228695;23;20176;-88
2023/01/11 03:08:57;;;;;;;6.15;2.25;;;5.60;2.50;;;;;;6225065;23;20194;-88
2023/01/11 03:14:27;;;;;;;5.60;2.67;;;5.40;1.00;;;;;;6158901;23;20167;-88
2023/01/11 03:17:05;;;;;;;5.10;1.52;;;5.40;1.00;;;;;;6220076;23;20174;-87
2023/01/11 03:19:39;;;;;;;7.45;2.25;;;5.60;83.60;;;;;;6219309;23;20245;-87
2023/01/11 03:22:13;;;;;;;1.58;1.40;;;5.50;1.00;;;;;;6220330;23;20175;-88
2023/01/11 03:24:47;;;;;;;5.25;1.95;;;5.50;1.00;;;;;;6219422;23;20178;-87
2023/01/11 03:27:22;;;;;;;8.65;2.20;;;5.40;1.00;;;;;;6219840;23;20203;-88
2023/01/11 03:29:54;;;;;;;2.78;2.05;;;5.50;1.00;;;;;;6219374;23;20203;-87
2023/01/11 03:32:29;;;;;;;6.82;2.20;;;5.50;1.00;;;;;;6222117;23;20159;-87
2023/01/11 03:35:09;;;;;;;5.68;2.15;;;5.60;1.00;;;;;;6230991;23;20182;-87
2023/01/11 03:37:40;;;;;;;3.65;2.30;;;5.60;1.00;;;;;;6237981;23;20197;-87
2023/01/11 03:40:14;;;;;;;3.70;2.33;;;5.80;1.00;;;;;;6224916;23;20205;-87
2023/01/11 03:45:29;;;;;;;6.32;2.08;;;5.80;1.00;;;;;;6242741;22;20190;-87
2023/01/11 03:47:59;;;;;;;2.65;1.90;;;5.70;1.00;;;;;;6244230;22;20152;-87
2023/01/11 03:50:28;;;;;;;5.10;1.80;;;5.70;1.00;;;;;;6244054;22;20179;-87
2023/01/11 03:52:57;;;;;;;3.53;2.22;;;5.70;1.00;;;;;;6238196;23;20219;-87
2023/01/11 03:55:33;;;;;;;5.13;1.70;;;5.70;1.00;;;;;;6240085;23;20171;-87
2023/01/11 03:58:00;;;;;;;4.07;2.15;;;6.00;1.00;;;;;;6241138;23;20163;-88
2023/01/11 04:00:30;;;;;;;1.98;1.88;;;5.80;1.00;;;;;;6239793;23;20192;-88
2023/01/11 04:03:00;;;;;;;4.60;1.60;;;5.80;1.00;;;;;;6231283;23;20195;-88
2023/01/11 04:05:27;;;;;;;1.83;1.58;;;5.80;1.00;;;;;;6233890;23;20202;-88
2023/01/11 04:07:55;;;;;;;3.42;2.03;;;7.80;1.00;;;;;;6233359;23;20186;-87
2023/01/11 04:10:22;;;;;;;4.47;2.58;;;7.10;1.00;;;;;;6229950;23;20695;-88
2023/01/11 04:12:49;;;;;;;5.40;2.30;;;4.20;1.00;;;;;;6219667;23;20701;-88
2023/01/11 04:15:17;;;;;;;3.97;1.88;;;5.90;1.00;;;;;;6222130;23;20180;-87
2023/01/11 04:17:44;;;;;;;4.15;2.13;;;5.80;1.00;;;;;;6222898;23;20266;-88
2023/01/11 04:20:13;;;;;;;5.97;2.20;;;5.90;1.00;;;;;;6228340;23;20203;-87
2023/01/11 04:22:40;;;;;;;3.28;2.10;;;5.80;1.00;;;;;;6241359;23;20206;-87
2023/01/11 04:25:08;;;;;;;7.75;2.35;;;5.80;1.00;;;;;;6244255;23;20171;-87
2023/01/11 04:27:36;;;;;;;6.32;2.08;;;5.90;1.00;;;;;;6234884;23;20267;-87
2023/01/11 04:30:03;;;;;;;4.85;1.67;;;5.90;1.00;;;;;;6234281;23;20226;-87
2023/01/11 04:32:30;;;;;;;2.30;2.10;;;5.90;1.00;;;;;;6233361;23;20516;-87
2023/01/11 04:34:57;;;;;;;2.08;1.48;;;5.90;1.00;;;;;;6231890;23;20213;-88
2023/01/11 04:37:25;;;;;;;4.53;1.75;;;5.90;1.00;;;;;;6238100;23;20184;-88
2023/01/11 04:39:52;;;;;;;3.58;2.50;;;5.90;1.00;;;;;;6237701;23;20206;-87
2023/01/11 04:42:18;;;;;;;2.63;1.65;;;5.90;1.00;;;;;;6230351;23;20285;-88
2023/01/11 04:44:46;;;;;;;5.73;2.57;;;6.10;1.00;;;;;;6225357;23;20496;-88
2023/01/11 04:47:13;;;;;;;3.22;2.13;;;5.90;1.00;;;;;;6223025;23;20386;-88
2023/01/11 04:49:40;;;;;;;2.60;1.98;;;5.90;1.00;;;;;;6220902;23;20255;-87
2023/01/11 04:52:07;;;;;;;4.32;2.50;;;5.90;1.00;;;;;;6220118;23;20185;-87
2023/01/11 04:54:35;;;;;;;3.70;2.35;;;5.90;1.00;;;;;;6221496;23;20505;-87
2023/01/11 04:57:02;;;;;;;3.65;2.03;;;6.00;1.00;;;;;;6220529;23;20179;-88
2023/01/11 04:59:29;;;;;;;3.70;2.13;;;5.90;1.00;;;;;;6220289;23;20206;-87
2023/01/11 05:01:56;;;;;;;6.80;2.42;;;5.90;1.00;;;;;;6219677;23;20266;-87
2023/01/11 05:04:23;;;;;;;7.70;2.20;;;6.50;1.00;;;;;;6219194;23;20223;-88
2023/01/11 05:06:50;;;;;;;3.60;2.20;;;5.90;1.00;;;;;;6219898;23;20182;-88
2023/01/11 05:09:18;;;;;;;1.35;1.25;;;5.90;1.00;;;;;;6219688;23;20560;-88
2023/01/11 05:11:46;;;;;;;3.55;2.00;;;5.90;1.00;;;;;;6219396;23;20206;-88
2023/01/11 05:14:14;;;;;;;2.33;1.70;;;5.90;1.00;;;;;;6219616;23;20489;-88
2023/01/11 05:16:41;;;;;;;3.47;2.03;;;6.00;1.00;;;;;;6219728;23;20227;-88
2023/01/11 05:19:10;;;;;;;2.58;1.42;;;5.90;1.00;;;;;;6219522;23;20344;-87
2023/01/11 05:21:41;;;;;;;2.15;1.60;;;5.90;1.00;;;;;;6219277;23;20688;-87
2023/01/11 05:24:11;;;;;;;8.55;2.47;;;6.10;1.00;;;;;;6223562;23;20164;-88
2023/01/11 05:26:39;;;;;;;6.38;2.80;;;6.50;1.00;;;;;;6228768;23;20566;-87
2023/01/11 05:29:10;;;;;;;2.10;1.92;;;6.00;1.00;;;;;;6221111;23;20282;-87
2023/01/11 05:31:39;;;;;;;4.53;1.70;;;6.00;1.00;;;;;;6219902;23;20164;-87
2023/01/11 05:34:06;;;;;;;3.58;2.00;;;6.10;1.00;;;;;;6220157;23;20666;-86
2023/01/11 05:36:34;;;;;;;5.90;1.90;;;6.00;1.00;;;;;;6220271;23;20659;-87
2023/01/11 05:39:02;;;;;;;3.00;1.70;;;6.00;1.00;;;;;;6226796;23;20735;-88
2023/01/11 05:41:29;;;;;;;2.03;1.83;;;6.30;99.90;;;;;;6227347;23;20217;-87
2023/01/11 05:46:43;;;;;;;4.80;1.90;;;6.10;1.00;;;;;;6220000;23;20186;-87
2023/01/11 05:49:11;;;;;;;4.70;2.20;;;6.00;28.30;;;;;;6220086;23;20274;-88
2023/01/11 05:51:40;;;;;;;8.80;2.22;;;6.00;33.50;;;;;;6221392;23;20167;-87
2023/01/11 05:54:10;;;;;;;7.03;2.17;;;6.00;25.60;;;;;;6220348;23;20171;-87
2023/01/11 05:56:37;;;;;;;2.92;1.80;;;6.10;41.50;;;;;;6239421;22;20171;-87
2023/01/11 05:59:04;;;;;;;7.13;2.30;;;6.10;72.70;;;;;;6244300;22;20206;-87
2023/01/11 06:01:31;;;;;;;2.55;1.70;;;6.10;99.90;;;;;;6243997;22;20175;-86
2023/01/11 06:03:59;;;;;;;6.50;2.42;;;6.10;99.90;;;;;;6244474;22;20191;-86
2023/01/11 06:06:26;;;;;;;2.85;1.40;;;6.10;99.90;;;;;;6243860;22;20164;-87
2023/01/11 06:08:53;;;;;;;2.85;1.98;;;6.10;99.90;;;;;;6243055;22;20242;-87
2023/01/11 06:11:20;;;;;;;2.50;2.20;;;6.00;99.90;;;;;;6227362;23;20235;-86
2023/01/11 06:13:53;;;;;;;2.20;2.00;;;6.00;99.90;;;;;;6227255;23;20706;-87
2023/01/11 06:16:21;;;;;;;2.45;1.80;;;6.00;99.90;;;;;;6224140;23;20171;-86
2023/01/11 06:18:49;;;;;;;1.90;1.63;;;6.00;99.90;;;;;;6221130;23;20199;-87
2023/01/11 06:21:18;;;;;;;2.15;1.95;;;6.00;1.00;;;;;;6220778;23;20178;-87
2023/01/11 06:23:47;;;;;;;5.75;2.85;;;6.00;99.90;;;;;;6222226;23;20195;-87
2023/01/11 06:26:16;;;;;;;9.85;2.15;;;5.80;1.00;;;;;;6232145;23;20179;-87
2023/01/11 06:28:43;;;;;;;7.05;2.05;;;6.10;99.90;;;;;;6235428;23;20263;-87
2023/01/11 06:31:11;;;;;;;6.13;1.85;;;6.10;99.90;;;;;;6235752;23;20163;-87
2023/01/11 06:33:38;;;;;;;8.48;3.05;;;6.10;99.90;;;;;;6237021;23;20175;-87
2023/01/11 06:36:07;;;;;;;3.75;2.03;;;6.10;99.90;;;;;;6238667;23;20189;-87
2023/01/11 06:38:36;;;;;;;7.45;2.42;;;5.90;99.90;;;;;;6240084;23;20183;-88
2023/01/11 06:41:06;;;;;;;6.30;2.88;;;6.10;99.90;;;;;;6240821;23;20163;-88
2023/01/11 06:43:33;;;;;;;4.65;1.52;;;6.30;99.90;;;;;;6241070;22;20266;-88
2023/01/11 06:46:00;;;;;;;5.35;2.10;;;6.10;99.90;;;;;;6237725;23;20180;-87
2023/01/11 06:48:27;;;;;;;2.42;2.05;;;6.00;99.90;;;;;;6226040;23;20199;-87
2023/01/11 06:50:56;;;;;;;1.70;1.60;;;5.90;99.90;;;;;;6219960;23;20186;-87
2023/01/11 06:53:24;;;;;;;3.17;1.90;;;6.10;99.90;;;;;;6219944;23;20175;-87
2023/01/11 06:55:53;;;;;;;4.55;2.22;;;6.20;99.90;;;;;;6219988;23;20516;-88
2023/01/11 06:58:22;;;;;;;4.70;1.80;;;6.40;99.90;;;;;;6220252;23;20254;-87
2023/01/11 07:00:49;;;;;;;6.88;2.05;;;6.20;99.90;;;;;;6229398;23;20179;-87
2023/01/11 07:03:16;;;;;;;4.30;2.08;;;6.20;99.90;;;;;;6238585;23;20202;-87
2023/01/11 07:05:47;;;;;;;2.65;1.75;;;6.40;99.90;;;;;;6238540;23;20179;-87
2023/01/11 07:08:14;;;;;;;9.30;4.07;;;6.20;99.90;;;;;;6238875;23;20187;-87
2023/01/11 07:10:42;;;;;;;4.15;2.25;;;6.20;99.90;;;;;;6236436;23;20230;-87
2023/01/11 07:13:17;;;;;;;6.03;1.92;;;6.40;99.90;;;;;;6225730;23;20183;-87
2023/01/11 07:15:45;;;;;;;2.97;1.95;;;6.20;99.90;;;;;;6221183;23;20209;-87
2023/01/11 07:18:16;;;;;;;11.18;2.13;;;6.20;99.90;;;;;;6219946;23;20243;-87
2023/01/11 07:20:44;;;;;;;1.92;1.83;;;6.20;99.90;;;;;;6218930;23;20195;-87
2023/01/11 07:23:13;;;;;;;3.83;2.30;;;6.10;99.90;;;;;;6218757;23;20675;-87
2023/01/11 07:25:51;;;;;;;2.75;2.55;;;6.30;99.90;;;;;;6220265;23;20536;-87
2023/01/11 07:28:34;;;;;;;2.70;2.10;;;6.30;99.90;;;;;;6219228;23;20564;-87
2023/01/11 07:31:26;;;;;;;6.05;1.65;;;6.30;99.90;;;;;;6189470;23;20167;-87
2023/01/11 07:34:18;;;;;;;2.78;1.85;;;6.30;99.90;;;;;;6207836;23;20187;-87
2023/01/11 07:39:31;;;;;;;2.40;2.00;;;;;;;;;;6207207;22;20192;-87
2023/01/11 07:44:44;;;;;;;2.45;1.70;;;6.30;99.90;;;;;;6204855;23;20226;-88
2023/01/11 07:47:11;;;;;;;2.30;2.05;;;;;;;;;;6190963;23;20580;-87
2023/01/11 07:49:38;;;;;;;9.05;2.00;;;;;;;;;;6189865;23;20220;-87
2023/01/11 07:52:05;;;;;;;2.25;1.73;;;6.30;99.90;;;;;;6191499;23;20218;-87
2023/01/11 07:54:32;;;;;;;2.40;1.90;;;6.30;99.90;;;;;;6189261;23;20207;-87
2023/01/11 07:56:59;;;;;;;2.63;1.90;;;6.60;99.90;;;;;;6199729;23;20180;-87
2023/01/11 07:59:26;;;;;;;2.40;2.30;;;6.80;99.90;;;;;;6209896;23;20199;-86
2023/01/11 08:01:54;;;;;;;2.55;1.98;;;6.40;99.90;;;;;;6197861;23;20179;-87
2023/01/11 08:04:21;;;;;;;8.05;2.80;;;6.40;1.00;;;;;;6190896;23;20199;-87
2023/01/11 08:06:49;;;;;;;3.88;2.20;;;7.00;99.90;;;;;;6192213;23;20207;-88
2023/01/11 08:09:16;;;;;;;3.58;1.88;;;6.60;99.90;;;;;;6191306;23;20223;-87
2023/01/11 08:14:42;;;;;;;2.95;1.80;;;6.60;99.90;;;;;;6194450;23;20190;-87
2023/01/11 08:17:13;;;;;;;4.57;1.95;;;6.60;99.90;;;;;;6206593;23;20164;-87
2023/01/11 08:19:40;;;;;;;3.92;1.83;;;6.60;99.90;;;;;;6209834;23;20236;-87
2023/01/11 08:22:08;;;;;;;4.35;2.10;;;6.70;99.90;;;;;;6210988;23;20235;-87
2023/01/11 08:24:35;;;;;;;3.60;2.03;;;6.70;99.90;;;;;;6212130;23;20176;-87
2023/01/11 08:27:03;;;;;;;7.05;3.55;;;6.80;1.00;;;;;;6210267;23;20180;-87
2023/01/11 08:29:30;;;;;;;5.47;1.83;;;6.80;99.90;;;;;;6223156;23;20190;-87
2023/01/11 08:31:58;;;;;;;2.83;1.98;;;6.80;99.90;;;;;;6245507;22;20186;-87
2023/01/11 08:34:27;;;;;;;2.00;1.88;;;6.80;99.90;;;;;;6245374;22;20222;-87
2023/01/11 08:36:55;;;;;;;2.67;2.00;;;6.90;99.90;;;;;;6239465;22;20175;-86
2023/01/11 08:39:22;;;;;;;7.05;2.50;;;6.90;99.90;;;;;;6233486;23;20206;-87
2023/01/11 08:41:49;;;;;;;7.22;2.03;;;7.00;1.00;;;;;;6231945;23;20695;-87
2023/01/11 08:44:18;;;;;;;2.97;2.10;;;7.00;99.90;;;;;;6232059;23;20183;-87
2023/01/11 08:46:45;;;;;;;2.33;2.10;;;7.00;1.00;;;;;;6226774;23;20182;-87
2023/01/11 08:49:15;;;;;;;5.20;2.53;;;7.20;99.90;;;;;;6226035;23;20206;-87
2023/01/11 08:51:45;;;;;;;3.85;1.80;;;7.60;1.00;;;;;;6224478;23;20563;-87
2023/01/11 08:54:24;;;;;;;2.55;2.08;;;7.10;99.90;;;;;;6224828;23;20179;-88
2023/01/11 08:56:51;;;;;;;3.28;2.47;;;;;;;;;;6224814;23;20218;-88
2023/01/11 08:59:20;;;;;;;6.93;3.03;;;;;;;;;;6221792;23;20199;-87
2023/01/11 09:01:48;;;;;;;6.72;2.10;;;;;;;;;;6220973;23;20515;-87
2023/01/11 09:04:15;;;;;;;6.90;3.00;;;7.20;99.90;;;;;;6220109;23;20182;-88
2023/01/11 09:06:43;;;;;;;2.55;2.35;;;7.20;99.90;;;;;;6220465;23;20515;-87
2023/01/11 09:09:12;;;;;;;6.10;2.67;;;7.20;99.90;;;;;;6220145;23;20680;-87
2023/01/11 09:11:55;;;;;;;2.40;1.90;;;8.90;1.00;;;;;;6221942;23;20175;-84
2023/01/11 09:14:23;;;;;;;3.85;2.60;;;7.30;1.00;;;;;;6226099;23;20183;-85
2023/01/11 09:16:50;;;;;;;6.15;3.30;;;7.30;1.00;;;;;;6222786;23;20175;-87
2023/01/11 09:19:17;;;;;;;5.88;2.58;;;7.30;1.00;;;;;;6220890;23;20195;-88
2023/01/11 09:21:46;;;;;;;5.88;3.30;;;7.30;1.00;;;;;;6220838;23;20198;-86
2023/01/11 09:24:12;;;;;;;3.85;3.38;;;7.30;1.00;;;;;;6224670;23;20203;-86
2023/01/11 09:26:40;;;;;;;2.55;2.33;;;7.40;1.00;;;;;;6241970;23;20170;-86
2023/01/11 09:29:07;;;;;;;2.97;2.78;;;7.30;1.00;;;;;;6243232;23;20210;-82
2023/01/11 09:31:35;;;;;;;4.00;3.17;;;7.40;1.00;;;;;;6243292;22;20163;-88
2023/01/11 09:34:03;;;;;;;3.20;2.23;;;7.50;1.00;;;;;;6243021;23;20437;-83
2023/01/11 09:36:31;;;;;;;4.20;2.13;;;7.40;1.00;;;;;;6243024;23;20390;-83
2023/01/11 09:39:03;;;;;;;3.03;2.20;;;7.50;1.00;;;;;;6237991;23;20199;-84
2023/01/11 09:41:41;;;;;;;3.92;2.20;;;7.50;1.00;;;;;;6234066;23;20211;-84
2023/01/11 09:44:15;;;;;;;3.13;2.83;;;8.00;1.00;;;;;;6227766;23;20167;-83
2023/01/11 09:46:45;;;;;;;2.72;2.20;;;7.40;1.00;;;;;;6231003;23;20458;-84
2023/01/11 09:49:18;;;;;;;4.32;3.05;;;7.50;1.00;;;;;;6230963;23;20199;-84
2023/01/11 09:51:48;;;;;;;2.22;1.88;;;7.50;1.00;;;;;;6228108;23;20168;-84
2023/01/11 09:54:21;;;;;;;2.88;2.10;;;7.50;1.00;;;;;;6228386;23;20199;-85
2023/01/11 09:56:59;;;;;;;2.43;2.23;;;7.50;1.00;;;;;;6228029;23;20545;-84
2023/01/11 09:59:33;;;;;;;3.20;2.90;;;7.50;34.90;;;;;;6227612;23;20433;-83
2023/01/11 10:02:08;;;;;;;3.17;2.05;;;7.40;99.90;;;;;;6228169;23;20163;-84
2023/01/11 10:04:57;;;;;;;3.45;2.50;;;7.30;99.90;;;;;;6228723;23;20224;-84
2023/01/11 10:07:37;;;;;;;4.05;2.25;;;7.20;99.90;;;;;;6227271;23;20169;-85
2023/01/11 10:10:21;;;;;;;3.47;2.55;;;7.00;1.00;;;;;;6227645;23;20199;-85
2023/01/11 10:12:56;;;;;;;4.05;2.42;;;7.40;1.00;;;;;;6233501;23;20163;-84
2023/01/11 10:15:31;;;;;;;5.80;2.30;;;7.10;1.00;;;;;;6233355;23;20178;-84
2023/01/11 10:18:26;;;;;;;4.35;3.13;;;7.00;1.00;;;;;;6231278;23;20223;-84
2023/01/11 10:21:00;;;;;;;6.78;2.90;;;7.00;1.00;;;;;;6230066;23;20206;-83
2023/01/11 10:23:35;;;;;;;3.35;2.20;;;7.00;1.00;;;;;;6228433;23;20186;-84
2023/01/11 10:26:11;;;;;;;3.88;2.90;;;7.10;79.10;;;;;;6227698;23;20564;-85
2023/01/11 10:28:54;;;;;;;10.23;2.80;;;7.00;99.90;;;;;;6228612;23;20214;-84
2023/01/11 10:31:43;;;;;;;4.78;4.38;;;7.00;51.40;;;;;;6230184;23;20606;-84
2023/01/11 10:34:37;;;;;;;2.90;2.70;;;7.20;99.90;;;;;;6227141;23;20285;-84
2023/01/11 10:37:26;;;;;;;9.07;5.85;;;7.00;99.90;;;;;;6227170;23;20229;-84
2023/01/11 10:40:18;;;;;;;16.17;10.60;;;7.10;99.90;;;;;;6232511;23;20195;-84
2023/01/11 10:42:51;;;;;;;6.65;4.40;;;7.10;99.90;;;;;;6238266;23;20164;-84
2023/01/11 10:45:22;;;;;;;3.97;3.58;;;7.10;99.90;;;;;;6228144;23;20210;-84
2023/01/11 10:47:56;;;;;;;4.10;2.70;;;7.20;99.90;;;;;;6227272;23;20252;-84
2023/01/11 10:50:31;;;;;;;3.00;2.70;;;7.10;99.90;;;;;;6226072;23;20568;-83
2023/01/11 10:53:05;;;;;;;4.40;2.97;;;7.10;99.90;;;;;;6225809;23;20237;-84
2023/01/11 10:55:42;;;;;;;3.38;2.50;;;7.10;99.90;;;;;;6227389;23;20206;-84
2023/01/11 10:58:23;;;;;;;2.63;2.40;;;7.10;99.90;;;;;;6226313;23;20162;-84
2023/01/11 11:00:57;;;;;;;3.40;3.10;;;7.10;99.90;;;;;;6227553;23;20170;-85
2023/01/11 11:03:47;;;;;;;3.22;2.92;;;7.10;99.90;;;;;;6233531;23;20186;-83
2023/01/11 11:06:23;;;;;;;7.55;3.80;;;7.10;99.90;;;;;;6233190;23;20179;-84
2023/01/11 11:08:57;;;;;;;3.13;2.75;;;7.10;99.90;;;;;;6234866;23;20198;-84
2023/01/11 11:11:30;;;;;;;2.97;2.67;;;7.00;99.90;;;;;;6234867;23;20163;-84
2023/01/11 11:14:03;;;;;;;2.88;2.55;;;7.10;99.90;;;;;;6241977;23;20186;-84
2023/01/11 11:16:41;;;;;;;3.00;2.80;;;7.10;99.90;;;;;;6242084;22;20170;-83
2023/01/11 11:19:14;;;;;;;5.25;3.25;;;7.00;99.90;;;;;;6234634;23;20202;-83
2023/01/11 11:21:42;;;;;;;3.78;3.25;;;7.00;99.90;;;;;;6226196;23;20555;-84
2023/01/11 11:24:19;;;;;;;3.10;2.70;;;7.10;99.90;;;;;;6231333;22;20183;-82
2023/01/11 11:26:51;;;;;;;5.40;3.50;;;7.10;99.90;;;;;;6221943;23;20246;-82
2023/01/11 11:29:28;;;;;;;4.80;4.30;;;7.10;99.90;;;;;;6222636;23;20263;-82
2023/01/11 11:31:56;;;;;;;3.97;3.00;;;7.10;99.90;;;;;;6231625;23;20163;-83
2023/01/11 11:34:26;;;;;;;4.45;3.30;;;7.00;99.90;;;;;;6238858;23;20223;-83
2023/01/11 11:36:54;;;;;;;5.25;3.72;;;7.10;99.90;;;;;;6238084;23;20202;-84
2023/01/11 11:39:23;;;;;;;4.10;2.97;;;7.30;1.00;;;;;;6235140;23;20230;-84
2023/01/11 11:41:51;;;;;;;3.13;2.92;;;7.10;1.00;;;;;;6228219;23;20234;-84
2023/01/11 11:44:23;;;;;;;3.92;3.08;;;7.10;1.00;;;;;;6228858;23;20182;-83
2023/01/11 11:47:00;;;;;;;26.55;16.33;;;7.20;1.00;;;;;;6235195;23;20223;-84
2023/01/11 11:49:28;;;;;;;3.90;3.42;;;7.10;1.00;;;;;;6235186;23;20226;-83
2023/01/11 11:51:55;;;;;;;3.30;3.00;;;7.10;1.00;;;;;;6231975;23;20523;-84
2023/01/11 11:54:26;;;;;;;4.35;3.80;;;7.10;1.00;;;;;;6227820;23;20246;-84
2023/01/11 11:56:55;;;;;;;3.80;3.20;;;7.10;1.00;;;;;;6230102;23;20187;-84
2023/01/11 11:59:28;;;;;;;3.90;3.60;;;7.10;1.00;;;;;;6230627;23;20269;-84
2023/01/11 12:02:00;;;;;;;5.80;3.80;;;7.10;1.00;;;;;;6229129;23;20199;-84
2023/01/11 12:04:39;;;;;;;9.55;5.20;;;7.20;1.00;;;;;;6227234;23;20624;-83
2023/01/11 12:07:13;;;;;;;8.77;5.68;;;7.20;1.00;;;;;;6229605;23;20241;-84
2023/01/11 12:09:44;;;;;;;4.10;3.72;;;7.20;1.00;;;;;;6235227;23;20274;-83
2023/01/11 12:12:16;;;;;;;4.70;4.32;;;7.30;1.00;;;;;;6231954;23;20238;-85
2023/01/11 12:15:06;;;;;;;3.80;3.33;;;7.30;1.00;;;;;;6228584;23;20188;-84
2023/01/11 12:17:33;;;;;;;4.40;3.63;;;7.30;1.00;;;;;;6229712;23;20217;-85
2023/01/11 12:20:00;;;;;;;3.67;3.45;;;7.30;1.00;;;;;;6231958;23;20229;-85
2023/01/11 12:22:30;;;;;;;3.47;3.17;;;7.30;1.00;;;;;;6233295;23;20243;-83
2023/01/11 12:25:21;;;;;;;3.85;3.30;;;7.40;1.00;;;;;;6230423;23;20223;-84
2023/01/11 12:28:00;;;;;;;4.00;3.33;;;7.40;1.00;;;;;;6232595;23;20167;-85
2023/01/11 12:30:33;;;;;;;3.85;3.53;;;7.40;1.00;;;;;;6231540;23;20259;-84
2023/01/11 12:33:23;;;;;;;4.32;3.78;;;7.50;1.00;;;;;;6232717;23;20609;-83
2023/01/11 12:35:57;;;;;;;4.97;4.53;;;7.50;1.00;;;;;;6232523;23;20180;-84
2023/01/11 12:38:42;;;;;;;4.88;4.47;;;7.30;1.00;;;;;;6242960;23;20146;-83
2023/01/11 12:41:50;;;;;;;4.25;3.10;;;7.50;1.00;;;;;;6242639;22;20187;-83
2023/01/11 12:44:45;;;;;;;3.57;3.20;;;7.50;1.00;;;;;;6184632;23;20413;-83
2023/01/11 12:47:50;;;;;;;4.55;4.15;;;7.50;1.00;;;;;;6244568;22;20391;-83
2023/01/11 12:50:23;;;;;;;3.60;3.30;;;7.50;1.00;;;;;;6244656;22;20198;-83
2023/01/11 12:53:02;;;;;;;3.20;3.00;;;7.50;1.00;;;;;;6244674;22;20168;-83
2023/01/11 12:55:47;;;;;;;4.30;3.90;;;7.50;1.00;;;;;;6244372;23;20187;-83
2023/01/11 12:58:18;;;;;;;4.22;3.00;;;7.60;1.00;;;;;;6245119;23;20159;-83
2023/01/11 13:01:21;;;;;;;4.78;3.60;;;7.70;1.00;;;;;;6245308;22;20154;-82
2023/01/11 13:04:07;;;;;;;4.43;3.05;;;7.60;1.00;;;;;;6238865;22;20167;-83
2023/01/11 13:06:39;;;;;;;4.68;3.30;;;7.70;1.00;;;;;;6245239;22;20150;-82
2023/01/11 13:09:13;;;;;;;2.80;2.60;;;7.70;1.00;;;;;;6245228;22;20179;-80
2023/01/11 13:11:49;;;;;;;4.07;3.55;;;7.90;1.00;;;;;;6245382;22;20154;-81
2023/01/11 13:14:51;;;;;;;3.70;3.40;;;7.50;1.00;;;;;;6244985;22;20194;-83
2023/01/11 13:17:24;;;;;;;5.93;3.40;;;7.60;1.00;;;;;;6226909;23;20190;-84
2023/01/11 13:20:02;;;;;;;3.70;3.20;;;7.00;1.00;;;;;;6226635;23;20188;-84
2023/01/11 13:22:32;;;;;;;4.25;3.85;;;7.80;1.00;;;;;;6230643;23;20167;-85
2023/01/11 13:25:01;;;;;;;5.07;4.15;;;7.60;1.00;;;;;;6234216;23;20160;-84
2023/01/11 13:27:30;;;;;;;4.37;3.43;;;7.60;1.00;;;;;;6233155;23;20197;-84
2023/01/11 13:30:00;;;;;;;5.35;4.90;;;7.60;1.00;;;;;;6232042;23;20494;-84
2023/01/11 13:32:32;;;;;;;6.67;3.30;;;7.60;1.00;;;;;;6235129;23;20167;-84
2023/01/11 13:35:06;;;;;;;5.70;3.60;;;7.60;1.00;;;;;;6235343;23;20426;-84
2023/01/11 13:37:37;;;;;;;6.23;4.60;;;7.70;1.00;;;;;;6234404;23;20189;-84
2023/01/11 13:40:15;;;;;;;5.50;5.00;;;7.70;1.00;;;;;;6234514;23;20434;-83
2023/01/11 13:42:46;;;;;;;5.63;5.13;;;7.70;1.00;;;;;;6231969;23;20163;-83
2023/01/11 13:45:17;;;;;;;5.93;5.32;;;7.70;1.00;;;;;;6231774;23;20160;-83
2023/01/11 13:47:47;;;;;;;7.05;5.00;;;7.90;1.00;;;;;;6230021;23;20216;-83
2023/01/11 13:50:22;;;;;;;5.20;4.72;;;7.70;1.00;;;;;;6227825;23;20258;-84
2023/01/11 13:52:59;;;;;;;6.80;4.53;;;7.70;1.00;;;;;;6227312;23;20218;-84
2023/01/11 13:55:31;;;;;;;4.15;3.75;;;7.70;1.00;;;;;;6230723;23;20183;-83
2023/01/11 13:58:05;;;;;;;4.47;3.65;;;7.70;1.00;;;;;;6236269;23;20175;-84